Time;durP1;ratioP1;P1;durP2;ratioP2;P2;SDS_P1;SDS_P2;PMS_P1;PMS_P2;Temp;Humidity;BMP_temperature;BMP_pressure;BME280_temperature;BME280_humidity;BME280_pressure;Samples;Min_cycle;Max_cycle;Signal;HPM_P1;HPM_P2
2021/03/21 00:03:19;;;;;;;3.60;2.58;;;;;;;9.39;66.73;102648.03;5090935;27;20461;-85
2021/03/21 00:05:47;;;;;;;4.03;3.05;;;;;;;9.41;66.50;102650.69;5072656;28;20033;-84
2021/03/21 00:08:16;;;;;;;4.72;3.10;;;;;;;9.34;66.39;102644.44;5072539;28;20087;-85
2021/03/21 00:10:49;;;;;;;4.85;2.78;;;;;;;9.40;66.82;102649.81;5058317;28;20057;-84
2021/03/21 00:13:17;;;;;;;4.93;3.50;;;;;;;9.36;66.35;102648.88;5051132;28;20040;-85
2021/03/21 00:15:44;;;;;;;4.03;3.13;;;;;;;9.35;67.06;102646.22;5048692;28;20484;-84
2021/03/21 00:18:11;;;;;;;5.85;3.60;;;;;;;9.27;66.92;102647.84;5050854;28;20459;-85
2021/03/21 00:20:38;;;;;;;7.63;4.55;;;;;;;9.24;67.49;102646.06;5050435;28;20075;-84
2021/03/21 00:23:05;;;;;;;8.73;5.28;;;;;;;9.27;67.22;102647.84;5050334;28;20074;-84
2021/03/21 00:25:35;;;;;;;5.93;4.75;;;;;;;9.37;66.52;102642.72;5050755;28;20461;-84
2021/03/21 00:28:05;;;;;;;9.68;5.50;;;;;;;9.35;66.60;102640.94;5051722;28;20056;-85
2021/03/21 00:30:35;;;;;;;8.88;6.57;;;;;;;9.21;67.47;102641.63;5051318;28;20033;-85
2021/03/21 00:33:03;;;;;;;11.73;6.80;;;;;;;9.22;67.69;102639.84;5051527;28;20034;-85
2021/03/21 00:35:30;;;;;;;10.65;6.75;;;;;;;9.23;66.90;102642.53;5050843;28;20021;-84
2021/03/21 00:38:00;;;;;;;12.77;8.00;;;;;;;9.10;67.62;102642.31;5051378;28;20037;-85
2021/03/21 00:40:28;;;;;;;12.25;8.10;;;;;;;9.27;66.96;102626.69;5051522;28;20030;-85
2021/03/21 00:42:55;;;;;;;14.80;8.75;;;;;;;9.22;67.66;102631.91;5050874;28;20044;-86
2021/03/21 00:45:24;;;;;;;14.60;10.77;;;;;;;9.25;67.12;102634.63;5051394;28;20549;-86
2021/03/21 00:47:53;;;;;;;14.82;10.63;;;;;;;9.20;67.89;102633.66;5051313;28;20029;-86
2021/03/21 00:50:28;;;;;;;20.95;12.95;;;;;;;9.29;67.59;102625.84;5050985;28;20088;-85
2021/03/21 00:52:55;;;;;;;20.38;13.63;;;;;;;9.22;67.96;102624.88;5051013;28;20116;-86
2021/03/21 00:55:22;;;;;;;22.20;14.43;;;;;;;9.25;67.43;102624.03;5051058;28;20037;-86
2021/03/21 00:57:49;;;;;;;25.50;15.43;;;;;;;9.31;67.70;102616.19;5050308;28;20036;-86
2021/03/21 01:02:59;;;;;;;23.20;16.60;;;;;;;9.31;67.38;102613.53;5102114;27;20373;-85
2021/03/21 01:05:33;;;;;;;32.95;19.27;;;;;;;9.18;68.78;102611.59;5082561;28;20033;-86
2021/03/21 01:08:01;;;;;;;30.33;19.20;;;;;;;9.28;68.18;102613.47;5072800;28;20475;-86
2021/03/21 01:10:31;;;;;;;29.80;18.30;;;;;;;9.34;67.44;102605.63;5061298;28;20029;-86
2021/03/21 01:12:59;;;;;;;32.35;18.73;;;;;;;9.24;68.42;102614.31;5051649;28;20464;-86
2021/03/21 01:15:29;;;;;;;28.20;18.88;;;;;;;9.27;68.51;102602.88;5051804;28;20029;-85
2021/03/21 01:17:57;;;;;;;26.50;18.63;;;;;;;9.25;68.42;102600.22;5050738;28;20591;-85
2021/03/21 01:20:26;;;;;;;33.45;18.45;;;;;;;9.37;68.01;102600.41;5050749;28;20075;-85
2021/03/21 01:22:53;;;;;;;29.25;19.67;;;;;;;9.35;67.56;102588.91;5051752;28;20120;-86
2021/03/21 01:25:22;;;;;;;29.35;19.25;;;;;;;9.37;67.91;102579.22;5050747;28;20116;-85
2021/03/21 01:27:49;;;;;;;30.30;20.30;;;;;;;9.34;67.80;102576.53;5050434;28;20114;-85
2021/03/21 01:30:17;;;;;;;28.77;18.08;;;;;;;9.30;68.01;102569.44;5050936;28;20022;-85
2021/03/21 01:32:44;;;;;;;27.42;18.38;;;;;;;9.39;68.22;102571.31;5050450;28;20029;-85
2021/03/21 01:35:12;;;;;;;32.85;18.25;;;;;;;9.38;68.22;102570.44;5050007;28;20376;-85
2021/03/21 01:37:39;;;;;;;27.15;16.75;;;;;;;9.36;68.61;102564.22;5050537;28;20044;-85
2021/03/21 01:40:09;;;;;;;23.40;15.63;;;;;;;9.46;67.66;102556.38;5050662;28;20121;-85
2021/03/21 01:42:41;;;;;;;27.50;16.65;;;;;;;9.49;68.18;102565.25;5051325;28;20033;-85
2021/03/21 01:45:37;;;;;;;21.52;14.68;;;;;;;9.52;67.55;102560.03;5050093;28;20035;-85
2021/03/21 01:48:30;;;;;;;19.25;13.68;;;;;;;9.50;67.67;102559.09;5050163;28;20048;-85
2021/03/21 01:51:11;;;;;;;31.02;17.98;;;;;;;9.48;68.19;102558.22;5049316;28;20068;-85
2021/03/21 01:53:41;;;;;;;21.52;12.40;;;;;;;9.38;67.68;102557.22;5050045;28;20423;-86
2021/03/21 01:56:10;;;;;;;17.92;12.35;;;;;;;9.48;67.44;102559.94;5049520;28;20029;-86
2021/03/21 01:58:37;;;;;;;22.23;13.20;;;;;;;9.41;68.24;102555.44;5050383;28;20029;-85
2021/03/21 02:01:13;;;;;;;25.42;12.85;;;;;;;9.55;67.31;102548.56;5050238;28;20033;-85
2021/03/21 02:03:40;;;;;;;22.15;14.45;;;;;;;9.44;68.02;102534.34;5050974;28;20108;-85
2021/03/21 02:06:36;;;;;;;19.83;13.25;;;;;;;9.54;67.65;102534.47;5050474;28;20033;-85
2021/03/21 02:17:23;;;;;;;20.08;13.77;;;;;;;9.50;67.33;102534.41;5070636;28;20364;-85
2021/03/21 02:20:15;;;;;;;19.52;11.98;;;;;;;9.51;67.41;102520.31;5070921;28;20032;-85
2021/03/21 02:31:06;;;;;;;21.75;14.20;;;;;;;9.38;67.81;102483.13;5075043;28;20499;-85
2021/03/21 02:33:46;;;;;;;23.02;13.27;;;;;;;9.48;67.40;102480.56;5072551;28;20033;-85
2021/03/21 02:36:18;;;;;;;21.05;13.30;;;;;;;9.46;67.29;102480.56;5071982;28;20052;-85
2021/03/21 02:38:55;;;;;;;;;;;;;;;9.49;66.88;102475.28;5072069;28;20024;-85
2021/03/21 02:41:31;;;;;;;23.23;14.77;;;;;;;9.37;67.19;102469.88;5070546;28;19912;-84
2021/03/21 02:44:06;;;;;;;21.17;13.40;;;;;;;9.29;67.46;102467.13;5071034;28;20142;-85
2021/03/21 02:46:38;;;;;;;22.70;14.55;;;;;;;9.20;68.12;102464.41;5070739;28;20100;-85
2021/03/21 02:49:28;;;;;;;26.50;15.93;;;;;;;9.35;67.23;102464.56;5070928;28;20029;-85
2021/03/21 02:52:00;;;;;;;28.65;15.90;;;;;;;9.29;67.21;102467.13;5070287;28;20028;-85
2021/03/21 02:54:36;;;;;;;27.60;15.73;;;;;;;9.28;67.39;102462.72;5072408;28;20025;-83
2021/03/21 02:57:11;;;;;;;23.05;14.73;;;;;;;9.20;67.73;102467.91;5072722;28;20132;-85
2021/03/21 02:59:42;;;;;;;26.83;15.35;;;;;;;9.25;67.24;102468.00;5071972;28;20082;-84
2021/03/21 03:02:13;;;;;;;26.58;15.00;;;;;;;9.32;67.00;102468.94;5071664;28;20035;-85
2021/03/21 03:04:44;;;;;;;31.20;17.27;;;;;;;9.21;67.95;102479.41;5071981;28;20028;-85
2021/03/21 03:10:04;;;;;;;26.75;14.98;;;;;;;9.38;67.53;102477.84;5085851;27;20391;-85
2021/03/21 03:12:38;;;;;;;27.98;16.25;;;;;;;9.38;67.95;102471.66;5071223;28;20100;-85
2021/03/21 03:15:08;;;;;;;27.48;15.73;;;;;;;9.44;67.14;102478.78;5071169;28;20020;-84
2021/03/21 03:17:40;;;;;;;31.85;16.52;;;;;;;9.47;67.83;102466.47;5071392;28;20119;-85
2021/03/21 03:29:07;;;;;;;46.08;19.77;;;;;;;9.59;67.48;102465.69;5071023;28;20831;-85
2021/03/21 03:31:44;;;;;;;41.10;19.83;;;;;;;9.70;67.32;102461.38;5031609;28;20113;-85
2021/03/21 03:34:11;;;;;;;41.25;19.50;;;;;;;9.68;67.60;102468.44;5031609;28;20034;-85
2021/03/21 03:36:38;;;;;;;41.92;20.65;;;;;;;9.69;67.68;102478.19;5031267;28;20112;-85
2021/03/21 03:39:05;;;;;;;49.63;21.88;;;;;;;9.57;68.75;102485.97;5031992;28;20040;-85
2021/03/21 03:44:29;;;;;;;49.50;22.50;;;;;;;9.90;67.87;102487.19;5111765;27;20351;-84
2021/03/21 03:47:19;;;;;;;49.33;23.08;;;;;;;9.65;69.12;102492.22;5111910;28;20107;-84
2021/03/21 03:49:59;;;;;;;52.25;21.60;;;;;;;9.82;68.88;102494.16;5111002;28;20048;-84
2021/03/21 03:52:53;;;;;;;58.60;23.70;;;;;;;9.87;68.49;102492.47;5111389;28;20085;-84
2021/03/21 03:58:11;;;;;;;45.88;22.65;;;;;;;9.96;68.17;102497.81;5092594;27;21067;-84
2021/03/21 04:00:48;;;;;;;52.85;24.25;;;;;;;9.91;68.53;102491.59;5060624;28;20481;-84
2021/03/21 04:03:41;;;;;;;45.38;21.35;;;;;;;10.12;67.87;102487.34;5052168;28;20029;-84
2021/03/21 04:09:20;;;;;;;41.67;20.23;;;;;;;9.86;68.83;102488.91;5091871;27;20413;-84
2021/03/21 04:12:10;;;;;;;37.13;19.63;;;;;;;9.86;68.70;102496.84;5051286;28;20056;-84
2021/03/21 04:14:53;;;;;;;35.28;18.88;;;;;;;9.86;67.99;102501.25;5051889;28;20029;-84
2021/03/21 04:17:31;;;;;;;36.95;18.17;;;;;;;9.94;68.08;102501.34;5051062;28;20073;-84
2021/03/21 04:23:15;;;;;;;24.10;12.65;;;;;;;9.81;67.40;102493.28;5091751;27;20393;-84
2021/03/21 04:25:48;;;;;;;19.83;11.35;;;;;;;9.96;67.28;102504.91;5071156;28;20068;-84
2021/03/21 04:28:21;;;;;;;16.27;9.38;;;;;;;9.71;67.08;102502.00;5072340;28;20052;-84
2021/03/21 04:31:14;;;;;;;22.30;10.50;;;;;;;9.92;66.04;102506.63;5074059;22;20045;-84
2021/03/21 04:33:48;;;;;;;;;;;;;;;10.00;65.81;102510.22;5051242;28;20025;-84
2021/03/21 04:36:26;;;;;;;19.08;8.38;;;;;;;10.04;65.96;102516.41;5049929;28;19929;-82
2021/03/21 04:39:00;;;;;;;15.75;7.50;;;;;;;9.80;66.35;102522.38;5050963;28;20040;-82
2021/03/21 04:41:33;;;;;;;15.73;6.32;;;;;;;9.68;66.55;102528.41;5049998;28;20075;-82
2021/03/21 04:44:22;;;;;;;9.35;4.07;;;;;;;9.65;65.00;102523.97;5050370;28;20041;-84
2021/03/21 04:47:06;;;;;;;11.85;3.78;;;;;;;9.85;64.81;102531.25;5050079;28;20044;-83
2021/03/21 04:49:36;;;;;;;10.23;3.97;;;;;;;9.68;65.21;102528.41;5050589;28;20029;-84
2021/03/21 04:52:32;;;;;;;15.90;4.10;;;;;;;9.54;64.20;102521.25;5049708;28;20075;-84
2021/03/21 04:55:06;;;;;;;12.00;3.78;;;;;;;9.71;63.84;102518.75;5050134;28;20034;-84
2021/03/21 05:00:27;;;;;;;11.70;3.55;;;;;;;9.44;64.74;102543.16;5081685;27;20852;-83
2021/03/21 05:03:01;;;;;;;7.55;2.00;;;;;;;9.49;63.31;102529.97;5070621;28;20069;-82
2021/03/21 05:05:33;;;;;;;4.68;2.08;;;;;;;9.58;62.31;102532.72;5070651;28;20078;-82
2021/03/21 05:08:09;;;;;;;9.90;2.70;;;;;;;9.70;62.78;102526.69;5070603;28;20036;-82
2021/03/21 05:10:44;;;;;;;11.27;2.15;;;;;;;9.61;61.66;102524.84;5070517;28;20387;-82
2021/03/21 05:19:07;;;;;;;10.48;2.33;;;;;;;9.67;62.01;102511.66;4958440;27;3785174;-83
2021/03/21 05:21:51;;;;;;;11.50;2.05;;;;;;;9.78;61.81;102497.66;5056273;28;20037;-82
2021/03/21 05:24:24;;;;;;;9.13;2.28;;;;;;;9.79;62.23;102502.94;5070467;28;20067;-82
2021/03/21 05:26:58;;;;;;;7.47;1.92;;;;;;;9.79;61.90;102510.88;5070427;28;20029;-82
2021/03/21 05:32:27;;;;;;;6.70;1.80;;;;;;;9.78;62.17;102517.09;5069907;28;20398;-82
2021/03/21 05:34:57;;;;;;;9.32;2.10;;;;;;;9.76;62.41;102520.56;5050595;28;20029;-82
2021/03/21 05:40:33;;;;;;;9.68;1.77;;;;;;;9.86;61.65;102533.91;4777621;27;8341818;-82
2021/03/21 05:46:10;;;;;;;7.82;2.22;;;;;;;9.89;62.10;102533.06;5090739;27;20401;-82
2021/03/21 05:52:12;;;;;;;8.13;3.22;;;;;;;9.99;61.80;102524.34;5070613;27;20914;-82
2021/03/21 06:06:27;;;;;;;13.30;2.70;;;;;;;9.96;61.99;102526.94;4954564;27;3828363;-82
2021/03/21 06:09:06;;;;;;;13.80;3.28;;;;;;;9.96;61.68;102540.19;5072484;28;20028;-82
2021/03/21 06:14:50;;;;;;;13.25;2.78;;;;;;;9.91;62.72;102548.97;5090987;28;20400;-84
2021/03/21 06:23:43;;;;;;;17.27;2.67;;;;;;;10.03;62.93;102565.88;5090720;27;20393;-83
2021/03/21 06:29:29;;;;;;;11.98;3.33;;;;;;;9.99;62.96;102557.88;5090275;27;20440;-82
2021/03/21 06:32:19;;;;;;;13.25;3.35;;;;;;;9.70;64.24;102564.63;5049765;28;20064;-82
2021/03/21 06:35:15;;;;;;;21.50;2.90;;;;;;;10.06;63.25;102572.94;5050448;28;20412;-83
2021/03/21 06:44:02;;;;;;;10.88;3.45;;;;;;;10.12;63.46;102577.41;5069914;28;20402;-84
2021/03/21 06:50:20;;;;;;;13.27;2.70;;;;;;;10.13;63.24;102587.13;5169716;27;20900;-83
2021/03/21 06:53:18;;;;;;;12.27;2.40;;;;;;;10.14;63.50;102580.97;5152029;27;20035;-83
2021/03/21 06:55:56;;;;;;;17.17;3.55;;;;;;;10.15;63.04;102578.31;5152443;27;20045;-83
2021/03/21 07:01:39;;;;;;;15.90;3.28;;;;;;;10.46;62.36;102572.47;5103050;27;20364;-83
2021/03/21 07:04:38;;;;;;;11.85;2.97;;;;;;;10.46;61.14;102577.75;5072607;28;20025;-83
2021/03/21 07:07:44;;;;;;;16.63;2.85;;;;;;;10.11;61.72;102584.47;5070385;28;20039;-83
2021/03/21 07:10:51;;;;;;;13.25;3.22;;;;;;;10.30;61.77;102574.06;5070294;28;20067;-84
2021/03/21 07:22:29;;;;;;;17.55;3.42;;;;;;;10.28;61.27;102592.59;5070820;28;20399;-82
2021/03/21 07:30:59;;;;;;;15.13;3.00;;;;;;;10.27;60.58;102601.41;5135505;22;20409;-93
2021/03/21 07:33:53;;;;;;;18.20;3.35;;;;;;;10.18;60.40;102604.84;5105826;28;20071;-94
2021/03/21 07:36:55;;;;;;;16.88;2.35;;;;;;;10.25;59.95;102603.16;5106773;28;20029;-91
2021/03/21 07:39:42;;;;;;;16.70;2.45;;;;;;;10.24;60.15;102606.66;5103146;28;20052;-90
2021/03/21 07:59:04;;;;;;;10.52;2.53;;;;;;;10.13;57.69;102605.66;5117271;27;936551;-96
2021/03/21 08:01:31;;;;;;;23.73;3.47;;;;;;;10.25;58.07;102612.88;5148134;28;20051;-95
2021/03/21 08:04:15;;;;;;;13.85;2.40;;;;;;;10.43;58.06;102598.91;5150299;27;20020;-91
2021/03/21 08:06:44;;;;;;;11.88;2.28;;;;;;;10.12;59.02;102609.19;5155134;27;20039;-94
2021/03/21 08:09:19;;;;;;;19.40;2.72;;;;;;;10.45;58.42;102598.06;5155905;27;20015;-94
2021/03/21 08:11:58;;;;;;;17.20;3.10;;;;;;;10.29;58.78;102607.63;5154344;27;20059;-94
2021/03/21 08:14:29;;;;;;;22.02;3.28;;;;;;;10.44;58.44;102606.00;5133095;28;20039;-96
2021/03/21 08:17:16;;;;;;;15.15;3.05;;;;;;;10.35;59.07;102614.72;5125365;28;20107;-96
2021/03/21 08:19:44;;;;;;;16.52;3.03;;;;;;;10.42;58.67;102623.63;5113772;28;20043;-95
2021/03/21 08:22:18;;;;;;;11.00;2.33;;;;;;;10.23;58.25;102622.56;5108938;28;20415;-96
2021/03/21 08:24:48;;;;;;;11.32;3.05;;;;;;;10.27;56.46;102625.25;5127393;28;20024;-96
2021/03/21 08:27:33;;;;;;;12.18;2.28;;;;;;;9.98;54.94;102639.09;5126578;28;20018;-96
2021/03/21 08:30:05;;;;;;;20.38;2.70;;;;;;;10.00;54.51;102626.72;5125509;28;20024;-96
2021/03/21 08:32:34;;;;;;;14.70;2.92;;;;;;;10.10;53.07;102626.84;5125466;28;20024;-95
2021/03/21 08:35:22;;;;;;;14.52;2.55;;;;;;;10.27;52.39;102630.56;5129717;28;20024;-94
2021/03/21 08:37:51;;;;;;;14.70;2.63;;;;;;;10.52;53.07;102614.91;5128336;28;20028;-95
2021/03/21 08:45:28;;;;;;;16.77;3.55;;;;;;;10.62;52.60;102611.47;5109613;28;20155;-96
2021/03/21 08:50:45;;;;;;;10.27;2.43;;;;;;;10.58;52.84;102620.28;4888531;27;5357539;-96
2021/03/21 08:53:34;;;;;;;15.60;3.40;;;;;;;10.84;52.67;102627.53;5050134;28;20296;-96
2021/03/21 08:56:26;;;;;;;16.08;3.83;;;;;;;10.88;52.54;102629.34;5035455;28;20029;-96
2021/03/21 09:02:16;;;;;;;17.75;3.45;;;;;;;10.84;52.72;102632.84;4989917;28;20465;-83
2021/03/21 09:07:33;;;;;;;20.15;2.97;;;;;;;10.97;52.91;102624.09;5090403;27;20415;-83
2021/03/21 09:15:46;;;;;;;23.17;3.45;;;;;;;11.02;53.12;102640.06;5090472;28;20816;-83
2021/03/21 09:26:47;;;;;;;14.90;3.47;;;;;;;10.66;53.90;102645.06;5090638;27;20458;-83
2021/03/21 09:31:58;;;;;;;16.55;2.97;;;;;;;10.99;53.07;102643.56;5070419;28;20401;-83
2021/03/21 09:34:49;;;;;;;19.63;3.92;;;;;;;11.03;53.18;102654.19;5050387;28;20064;-83
2021/03/21 09:37:20;;;;;;;32.55;4.32;;;;;;;10.73;53.21;102650.41;5050596;28;20022;-83
2021/03/21 09:39:57;;;;;;;23.48;4.25;;;;;;;10.84;52.66;102656.69;5050069;28;20505;-83
2021/03/21 09:42:24;;;;;;;24.17;3.78;;;;;;;10.97;52.36;102647.97;5050144;28;20044;-83
2021/03/21 09:45:05;;;;;;;23.83;4.05;;;;;;;10.92;52.19;102656.78;5050646;28;20116;-84
2021/03/21 09:59:51;;;;;;;21.63;3.67;;;;;;;11.21;49.15;102678.19;5173038;27;20363;-84
2021/03/21 10:05:39;;;;;;;19.55;4.38;;;;;;;11.47;47.80;102688.97;4728570;27;9730768;-83
2021/03/21 10:11:12;;;;;;;22.92;3.67;;;;;;;11.69;46.87;102682.88;5056080;28;20429;-82
2021/03/21 10:13:49;;;;;;;20.88;4.63;;;;;;;11.69;47.12;102689.09;5051054;28;20432;-83
2021/03/21 10:19:08;;;;;;;24.85;4.03;;;;;;;12.10;46.94;102690.16;5090694;27;20450;-83
2021/03/21 10:21:39;;;;;;;23.08;3.53;;;;;;;11.91;47.30;102694.50;5052809;28;20041;-83
2021/03/21 10:24:13;;;;;;;29.20;4.85;;;;;;;12.04;47.56;102691.06;5050609;28;20125;-84
2021/03/21 10:38:44;;;;;;;25.42;4.07;;;;;;;11.61;47.47;102688.16;5102621;27;20377;-96
2021/03/21 10:41:10;;;;;;;22.77;4.68;;;;;;;11.52;48.27;102699.63;5066201;28;20462;-96
2021/03/21 10:43:59;;;;;;;24.83;4.70;;;;;;;11.69;48.06;102699.72;5063983;28;20066;-96
2021/03/21 10:46:48;;;;;;;19.88;4.38;;;;;;;11.88;47.53;102699.81;5064276;28;20049;-96
2021/03/21 10:49:51;;;;;;;25.90;4.03;;;;;;;11.55;46.69;102701.41;5060250;28;20041;-96
2021/03/21 10:52:35;;;;;;;23.93;4.43;;;;;;;11.07;47.47;102701.09;5062545;28;20021;-96
2021/03/21 10:58:29;;;;;;;20.10;5.07;;;;;;;11.47;46.66;102709.34;5107440;27;20387;-94
2021/03/21 11:06:56;;;;;;;18.85;5.03;;;;;;;11.43;46.55;102700.47;5106625;27;20177;-96
2021/03/21 11:09:26;;;;;;;35.45;5.07;;;;;;;11.63;46.13;102705.00;5088362;28;20499;-95
2021/03/21 11:11:55;;;;;;;21.40;4.28;;;;;;;11.97;45.91;102690.16;5069385;28;20025;-96
2021/03/21 11:17:25;;;;;;;16.17;4.22;;;;;;;12.55;45.57;102692.97;5096021;27;20364;-95
2021/03/21 11:19:57;;;;;;;29.02;5.93;;;;;;;12.55;45.22;102685.84;5065088;28;20076;-94
2021/03/21 11:25:28;;;;;;;27.50;4.85;;;;;;;12.50;44.80;102690.28;5190101;27;20396;-95
2021/03/21 11:27:54;;;;;;;27.48;4.75;;;;;;;12.46;45.17;102683.16;5171566;27;20061;-94
2021/03/21 11:30:27;;;;;;;24.00;4.55;;;;;;;12.25;45.21;102695.53;5164760;27;20086;-96
2021/03/21 11:32:55;;;;;;;;;;;;;;;12.22;46.24;102700.84;5150590;27;20031;-94
2021/03/21 11:35:27;;;;;;;28.23;5.30;;;;;;;11.93;45.90;102698.06;5149057;27;20318;-95
2021/03/21 11:37:56;;;;;;;25.80;5.13;;;;;;;11.75;45.86;102694.44;5149966;28;20027;-95
2021/03/21 11:40:31;;;;;;;24.33;3.67;;;;;;;12.10;45.11;102698.13;5131026;28;20039;-95
2021/03/21 11:46:15;;;;;;;21.35;4.35;;;;;;;12.28;45.00;102706.16;5077718;27;868111;-96
2021/03/21 11:48:43;;;;;;;20.15;4.25;;;;;;;12.42;44.75;102707.97;5090644;28;20036;-96
2021/03/21 11:51:12;;;;;;;25.30;4.63;;;;;;;12.27;44.95;102704.44;5075564;28;20025;-95
2021/03/21 11:53:40;;;;;;;27.25;4.78;;;;;;;12.07;43.79;102703.47;5085022;28;20017;-95
2021/03/21 11:56:31;;;;;;;24.85;4.68;;;;;;;12.21;43.72;102693.78;5086776;28;20063;-94
2021/03/21 11:59:06;;;;;;;22.75;4.25;;;;;;;12.43;44.23;102693.81;5087172;28;20032;-95
2021/03/21 12:01:42;;;;;;;26.90;5.15;;;;;;;12.35;44.17;102704.44;5084976;28;20028;-95
2021/03/21 12:04:19;;;;;;;27.25;4.82;;;;;;;12.27;44.26;102699.13;5086107;28;20032;-95
2021/03/21 12:06:51;;;;;;;24.58;4.68;;;;;;;12.24;44.06;102704.41;5085749;28;20498;-95
2021/03/21 12:12:26;;;;;;;25.92;4.25;;;;;;;11.80;45.39;102705.06;5082224;28;20130;-95
2021/03/21 12:14:52;;;;;;;23.65;4.38;;;;;;;11.97;45.63;102700.78;5062591;28;20040;-94
2021/03/21 12:17:30;;;;;;;30.25;4.45;;;;;;;11.92;45.63;102699.81;5060478;28;20100;-93
2021/03/21 12:20:17;;;;;;;36.35;5.25;;;;;;;11.90;45.88;102696.28;5060722;28;20033;-95
2021/03/21 12:22:49;;;;;;;25.67;4.30;;;;;;;11.91;45.30;102698.06;5058740;28;20033;-94
2021/03/21 12:28:19;;;;;;;27.45;4.70;;;;;;;12.04;45.50;102687.53;5205870;27;20343;-94
2021/03/21 12:30:49;;;;;;;22.15;4.60;;;;;;;12.11;45.16;102697.25;5175011;27;20042;-95
2021/03/21 12:33:35;;;;;;;20.10;5.00;;;;;;;11.96;44.99;102680.41;5161194;27;20027;-94
2021/03/21 12:38:57;;;;;;;26.63;4.50;;;;;;;12.13;44.28;102684.88;5097721;27;20376;-95
2021/03/21 12:41:42;;;;;;;26.20;4.38;;;;;;;11.93;44.80;102692.75;5064164;28;20030;-96
2021/03/21 12:44:11;;;;;;;24.27;5.05;;;;;;;11.78;45.09;102682.94;5065880;28;20037;-94
2021/03/21 12:46:44;;;;;;;28.63;4.72;;;;;;;11.85;45.27;102683.84;5065049;28;20025;-94
2021/03/21 12:49:26;;;;;;;;;;;;;;;11.96;45.09;102677.75;5060624;28;20029;-94
2021/03/21 12:51:59;;;;;;;27.42;4.55;;;;;;;11.72;45.01;102677.63;5054949;28;19975;-94
2021/03/21 12:54:26;;;;;;;25.65;4.25;;;;;;;11.87;44.81;102677.66;5053755;28;20097;-95
2021/03/21 12:56:53;;;;;;;27.05;4.07;;;;;;;11.97;45.17;102684.84;5053289;28;20021;-95
2021/03/21 12:59:19;;;;;;;23.88;5.35;;;;;;;12.03;45.04;102670.69;5053926;28;20022;-88
2021/03/21 13:01:46;;;;;;;22.67;4.60;;;;;;;11.91;45.06;102668.84;5052790;28;20021;-90
2021/03/21 13:04:15;;;;;;;26.08;4.50;;;;;;;11.90;44.75;102667.06;5052510;28;20124;-92
2021/03/21 13:06:41;;;;;;;22.90;4.45;;;;;;;12.16;44.33;102663.63;5053039;28;20041;-89
2021/03/21 13:09:08;;;;;;;27.98;4.75;;;;;;;11.92;44.26;102665.28;5052182;28;20052;-91
2021/03/21 13:11:37;;;;;;;27.33;4.43;;;;;;;12.09;43.85;102668.03;5052312;28;20116;-89
2021/03/21 13:14:05;;;;;;;26.00;5.55;;;;;;;12.07;44.30;102663.59;5053538;28;20074;-88
2021/03/21 13:16:32;;;;;;;20.58;4.45;;;;;;;12.03;44.12;102661.84;5053329;28;20040;-93
2021/03/21 13:18:58;;;;;;;24.02;4.32;;;;;;;12.15;44.30;102648.59;5052509;28;20032;-94
2021/03/21 13:21:26;;;;;;;24.02;4.43;;;;;;;11.91;44.24;102657.31;5054099;28;20026;-90
2021/03/21 13:23:52;;;;;;;29.63;4.22;;;;;;;12.07;44.51;102655.63;5052213;28;20061;-89
2021/03/21 13:26:18;;;;;;;24.65;4.47;;;;;;;11.98;44.81;102649.41;5051060;28;20116;-88
2021/03/21 13:28:45;;;;;;;27.13;4.50;;;;;;;11.92;45.13;102649.34;5051712;28;20033;-95
2021/03/21 13:31:11;;;;;;;33.15;5.03;;;;;;;11.91;44.63;102652.00;5052292;28;20024;-95
2021/03/21 13:33:38;;;;;;;30.63;5.05;;;;;;;12.14;44.41;102636.19;5052739;28;20362;-90
2021/03/21 13:36:08;;;;;;;26.50;4.72;;;;;;;11.83;45.35;102638.69;5051551;28;20036;-94
2021/03/21 13:38:35;;;;;;;26.38;4.88;;;;;;;11.80;45.22;102659.91;5051416;28;20065;-92
2021/03/21 13:41:06;;;;;;;23.65;4.45;;;;;;;11.95;45.05;102654.69;5051755;28;20025;-91
2021/03/21 13:43:34;;;;;;;30.08;4.32;;;;;;;11.91;44.92;102644.94;5051794;28;20033;-89
2021/03/21 13:46:06;;;;;;;24.33;4.38;;;;;;;11.85;44.66;102642.25;5051633;28;20365;-90
2021/03/21 13:48:36;;;;;;;23.52;4.93;;;;;;;11.63;44.74;102644.81;5047050;28;20034;-90
2021/03/21 13:51:08;;;;;;;22.27;3.50;;;;;;;11.54;44.90;102636.81;5037277;28;20035;-91
2021/03/21 13:53:37;;;;;;;26.27;4.80;;;;;;;11.64;45.53;102633.31;5038223;28;20029;-92
2021/03/21 13:56:06;;;;;;;23.95;5.25;;;;;;;11.62;45.59;102624.44;5037522;28;20488;-90
2021/03/21 13:58:32;;;;;;;28.63;4.90;;;;;;;11.48;46.32;102636.78;5037511;28;20033;-91
2021/03/21 14:01:00;;;;;;;23.90;4.63;;;;;;;11.30;46.26;102616.34;5037038;28;20393;-87
2021/03/21 14:03:26;;;;;;;20.33;3.95;;;;;;;11.43;46.07;102606.69;5037215;28;20021;-90
2021/03/21 14:05:53;;;;;;;26.83;4.35;;;;;;;10.84;47.34;102616.91;5036917;28;20060;-90
2021/03/21 14:08:21;;;;;;;32.25;5.13;;;;;;;11.10;47.10;102616.22;5037990;28;20078;-88
2021/03/21 14:10:48;;;;;;;26.00;4.40;;;;;;;11.27;46.89;102619.84;5036217;28;20037;-88
2021/03/21 14:13:15;;;;;;;24.42;4.65;;;;;;;11.41;46.62;102625.22;5037000;28;20033;-89
2021/03/21 14:15:43;;;;;;;23.90;5.53;;;;;;;11.45;46.79;102626.13;5036565;28;20063;-85
2021/03/21 14:18:12;;;;;;;20.75;4.22;;;;;;;11.43;46.73;102639.41;5036736;28;20038;-88
2021/03/21 14:20:42;;;;;;;23.73;4.50;;;;;;;11.53;46.29;102628.84;5036365;28;20025;-88
2021/03/21 14:23:12;;;;;;;20.52;3.75;;;;;;;11.37;46.36;102639.38;5037117;28;20024;-96
2021/03/21 14:25:39;;;;;;;18.35;4.65;;;;;;;11.20;46.67;102635.75;5045667;28;20026;-96
2021/03/21 14:28:08;;;;;;;18.25;4.00;;;;;;;11.08;47.40;102636.53;5049503;28;20048;-92
2021/03/21 14:30:35;;;;;;;20.17;4.15;;;;;;;10.93;47.64;102621.41;5044362;28;20037;-94
2021/03/21 14:33:02;;;;;;;21.58;7.15;;;;;;;11.29;46.95;102630.47;5037638;28;20022;-94
2021/03/21 14:35:31;;;;;;;28.00;4.45;;;;;;;11.12;47.50;102633.03;5038276;28;20457;-94
2021/03/21 14:37:58;;;;;;;26.23;4.80;;;;;;;11.16;46.98;102633.09;5038105;28;20120;-95
2021/03/21 14:40:26;;;;;;;25.95;4.78;;;;;;;11.03;47.41;102638.28;5038262;28;20083;-93
2021/03/21 14:42:53;;;;;;;23.67;4.10;;;;;;;11.21;47.47;102633.09;5036462;28;20079;-94
2021/03/21 14:45:20;;;;;;;22.10;4.53;;;;;;;11.11;47.58;102634.78;5037117;28;20045;-94
2021/03/21 14:47:46;;;;;;;20.73;3.88;;;;;;;10.91;47.81;102633.78;5035808;28;20037;-93
2021/03/21 14:50:16;;;;;;;22.45;4.15;;;;;;;10.99;47.63;102627.66;5036143;28;20068;-94
2021/03/21 14:52:44;;;;;;;21.63;4.82;;;;;;;10.89;48.04;102612.56;5035685;28;20030;-93
2021/03/21 14:55:11;;;;;;;25.58;4.22;;;;;;;10.91;48.15;102617.88;5036341;28;20029;-93
2021/03/21 14:57:37;;;;;;;22.40;4.28;;;;;;;11.07;47.72;102613.56;5035413;28;20029;-94
2021/03/21 15:00:07;;;;;;;24.30;4.68;;;;;;;11.23;47.80;102615.41;5050852;22;20033;-81
2021/03/21 15:02:33;;;;;;;20.63;3.28;;;;;;;11.39;47.28;102620.81;5034756;28;20541;-84
2021/03/21 15:05:00;;;;;;;25.17;4.93;;;;;;;11.15;46.85;102622.44;5035367;28;20036;-83
2021/03/21 15:07:26;;;;;;;22.65;4.97;;;;;;;11.07;47.37;102619.75;5034413;28;20095;-82
2021/03/21 15:09:52;;;;;;;23.30;3.95;;;;;;;11.31;46.82;102621.69;5034597;28;20500;-82
2021/03/21 15:12:32;;;;;;;18.25;4.30;;;;;;;11.22;47.10;102624.25;5034707;28;20060;-83
2021/03/21 15:15:22;;;;;;;19.05;4.55;;;;;;;10.97;46.69;102613.47;5018985;28;20072;-84
2021/03/21 15:17:53;;;;;;;21.70;4.25;;;;;;;11.03;46.91;102617.06;5034056;28;20048;-83
2021/03/21 15:20:31;;;;;;;29.13;4.38;;;;;;;11.24;46.98;102617.19;5034327;28;20393;-83
2021/03/21 15:23:05;;;;;;;17.35;3.60;;;;;;;10.97;47.05;102615.25;5034366;28;20029;-83
2021/03/21 15:25:37;;;;;;;28.80;4.10;;;;;;;10.97;46.28;102607.31;5034967;28;20381;-83
2021/03/21 15:28:05;;;;;;;28.02;4.45;;;;;;;11.18;46.23;102598.59;5034365;28;20075;-82
2021/03/21 15:30:33;;;;;;;18.40;4.75;;;;;;;11.38;46.21;102613.75;5034214;28;20025;-83
2021/03/21 15:33:04;;;;;;;21.35;3.97;;;;;;;11.20;46.25;102603.91;5034160;28;20433;-83
2021/03/21 15:35:44;;;;;;;16.98;3.00;;;;;;;11.43;46.25;102618.19;5034765;28;20030;-84